Flight Information

DEPARTURE
OLYMPIA, WA
Elevation:
207
Runways:
17/35 - 5500x150 - ASPH-G
8/26 - 4157x150 - ASPH-G
ATIS:
135.725
Ground:
121.6
Tower:
OLYMPIA TOWER 124.4
DESTINATION
SEATTLE, WA
Elevation:
432
TPA:
1432 (est.)
Runways:
16C/34C - 9426x150 - CONC-E
16L/34R - 11901x150 - CONC-E
16R/34L - 8500x150 - CONC-E
Active PE Arriving:
34C - 34L - 34R
Active PE Approach:
VISUAL APPROACHES IN USE. ILS RUNWAY 3 4 CENTER, RUNWAY 3 4 LEFT, AND RUNWAY 3 4 RIGHT APPROACH IN USE.
Current PE ATIS:
F
Altimeter:
30.29
Remarks:
SIMULTANEOUS APPROACHES TO PARALLEL RUNWAYS IN USE. SIMULTANEOUS APPROACHES IN USE BETWEEN SEATTLE AND BOEING FIELD. TRAFFIC BELOW YOU ON FINAL. V F R DEPARTURES CONTACT CLEARANCE DELIVERY, ADVISE ON COURSE HEADING, ALTITUDE, AND IF FLIGHT FOLLOWING IS REQUESTED.
ATIS:
118 206-241-6025
Tower:
SEATTLE TOWER
119.9 (RWYS 16C-34C, 16L-34R)
120.95 (RWY 16R-34L)
Ground:
121.7


37.6 NM40° True-20° Var19° HDG

Flight Plan:
(click to file on line)

1. Type
2. Aircraft Identification
3. Aircraft Type / Special Equipment
4. True Airspeed
kts
5. Departure Airport
(ICAO code)
6. Arriving Airport
(ICAO code)
7. Cruising Altitude
ft
8. Alternate Airport
(ICAO code)
9. Route of Flight
10. Remarks


00:00:00 Departure ATIS: Destination ATIS:

Clearance Limit:
Route:
Altitude: Expect in minutes
Frequency:
Transponder: (7500 Hijack / 7600 Lost Comms / 7700 Emergency)


KOLM 110354Z AUTO 24004KT 10SM CLR 04/M02 A3032 RMK AO2 SLP267 T00391022
Time: 2021-04-11T03:54:00Z
1618113753
Winds: 240 @ 4 kts
Visibility: 10.0 sm
Clouds (AGL): CLR
Temperature: 3.9 C
Dew Point: -2.2 C
Pressure: 30.318897 in Hgbr

KSEA 110353Z 34007KT 10SM BKN070 BKN250 07/M02 A3031 RMK AO2 SLP273 T00671017
Time: 2021-04-11T03:53:00Z
1618113753
Winds: 340 @ 7 kts
Visibility: 10.0 sm
Clouds (AGL): BKN 7000
BKN 25000
Temperature: 6.7 C
Dew Point: -1.7 C
Pressure: 30.31004 in Hgbr


Notes:

Data extracted from FAA Digital Chart Supplement. Effective: 0901Z Thursday, Feb 25, 2021 to 0901Z Thursday, APR 22, 2021
Current ATIS data is provided courtisy of PilotEdge.